Time;durP1;ratioP1;P1;durP2;ratioP2;P2;SDS_P1;SDS_P2;PMS_P1;PMS_P2;Temp;Humidity;BMP_temperature;BMP_pressure;BME280_temperature;BME280_humidity;BME280_pressure;Samples;Min_cycle;Max_cycle;Signal;HPM_P1;HPM_P2
2022/09/11 00:00:45;;;;;;;53.03;34.58;;;;;;;21.95;58.02;101790.19;5094316;28;20036;-76
2022/09/11 00:03:11;;;;;;;50.40;36.05;;;;;;;21.87;58.04;101788.00;5093661;28;20039;-77
2022/09/11 00:05:38;;;;;;;61.00;37.42;;;;;;;22.03;58.14;101797.84;5093803;28;20074;-76
2022/09/11 00:08:06;;;;;;;54.67;36.20;;;;;;;21.81;58.64;101795.41;5093943;28;20028;-76
2022/09/11 00:10:39;;;;;;;51.85;34.90;;;;;;;22.01;57.71;101794.56;5094901;28;20063;-78
2022/09/11 00:13:20;;;;;;;54.58;35.00;;;;;;;21.97;58.10;101790.72;5094057;28;20036;-77
2022/09/11 00:15:50;;;;;;;56.05;35.20;;;;;;;21.96;58.08;101788.25;5092935;28;20098;-76
2022/09/11 00:18:20;;;;;;;51.90;35.88;;;;;;;21.93;58.07;101792.38;5093759;28;20076;-78
2022/09/11 00:20:48;;;;;;;54.85;35.90;;;;;;;21.87;58.10;101796.22;5094342;28;20115;-77
2022/09/11 00:23:16;;;;;;;53.58;35.83;;;;;;;21.87;58.69;101798.97;5093615;28;20032;-76
2022/09/11 00:25:42;;;;;;;53.25;36.75;;;;;;;21.88;58.48;101797.06;5094413;28;20055;-77
2022/09/11 00:28:20;;;;;;;53.25;36.03;;;;;;;21.95;58.33;101795.66;5094138;28;20028;-77
2022/09/11 00:30:55;;;;;;;55.65;35.55;;;;;;;21.81;58.29;101797.31;5093429;28;20139;-77
2022/09/11 00:33:21;;;;;;;55.70;33.78;;;;;;;21.79;58.66;101797.56;5093397;28;20032;-76
2022/09/11 00:35:57;;;;;;;46.88;33.75;;;;;;;21.70;58.81;101792.91;5093298;28;20039;-76
2022/09/11 00:38:27;;;;;;;53.08;34.88;;;;;;;21.63;58.21;101795.13;5093725;28;20042;-77
2022/09/11 00:40:54;;;;;;;46.03;33.15;;;;;;;21.65;58.09;101791.03;5093120;28;20028;-76
2022/09/11 00:43:20;;;;;;;52.97;34.30;;;;;;;21.57;58.05;101798.97;5094049;28;20032;-77
2022/09/11 00:45:51;;;;;;;51.40;33.67;;;;;;;21.50;58.97;101796.50;5093260;28;20056;-77
2022/09/11 00:48:20;;;;;;;55.08;34.20;;;;;;;21.60;58.69;101788.28;5093591;28;20036;-76
2022/09/11 00:50:48;;;;;;;49.53;34.40;;;;;;;21.49;58.42;101799.50;5084084;28;20040;-76
2022/09/11 00:53:16;;;;;;;48.75;32.47;;;;;;;21.42;58.67;101805.28;5073203;28;20028;-76
2022/09/11 00:55:47;;;;;;;43.70;31.73;;;;;;;21.39;58.87;101799.50;5073839;28;20549;-77
2022/09/11 00:58:20;;;;;;;49.03;32.85;;;;;;;21.39;58.86;101799.50;5080242;28;20392;-75
2022/09/11 01:00:45;;;;;;;54.05;33.22;;;;;;;21.32;58.53;101804.44;5092351;28;20455;-77
2022/09/11 01:03:11;;;;;;;55.08;34.92;;;;;;;21.30;58.73;101806.63;5093215;28;20067;-77
2022/09/11 01:05:39;;;;;;;55.33;33.70;;;;;;;21.29;58.60;101807.69;5093343;28;20039;-77
2022/09/11 01:08:05;;;;;;;53.42;34.42;;;;;;;21.43;58.53;101806.91;5093326;28;20224;-76
2022/09/11 01:11:18;;;;;;;53.40;34.92;;;;;;;21.31;58.41;101803.59;5093400;28;20028;-76
2022/09/11 01:14:10;;;;;;;47.95;34.75;;;;;;;21.11;58.83;101805.53;5092957;28;20040;-76
2022/09/11 01:16:48;;;;;;;45.75;33.60;;;;;;;21.15;58.61;101806.63;5074882;28;20495;-77
2022/09/11 01:19:36;;;;;;;52.85;33.78;;;;;;;21.12;58.50;101807.16;5092623;28;20438;-76
2022/09/11 01:22:13;;;;;;;48.22;33.90;;;;;;;21.04;58.61;101805.78;5092301;28;20032;-76
2022/09/11 01:25:08;;;;;;;49.90;33.47;;;;;;;21.05;58.96;101806.59;5091935;28;20538;-78
2022/09/11 01:27:59;;;;;;;46.95;33.88;;;;;;;21.01;58.48;101800.88;5092150;28;20130;-77
2022/09/11 01:30:46;;;;;;;48.45;32.70;;;;;;;20.96;58.44;101809.00;5092154;28;20031;-79
2022/09/11 01:33:41;;;;;;;48.38;34.28;;;;;;;21.07;58.44;101815.34;5073493;28;20043;-76
2022/09/11 01:36:33;;;;;;;53.75;33.80;;;;;;;21.18;58.53;101811.53;5083590;28;20036;-75
2022/09/11 01:39:02;;;;;;;48.63;35.03;;;;;;;21.29;58.25;101803.06;5092084;28;20043;-77
2022/09/11 01:41:39;;;;;;;55.25;35.28;;;;;;;21.17;58.54;101807.19;5092407;28;20035;-76
2022/09/11 01:44:21;;;;;;;56.80;37.42;;;;;;;21.26;58.21;101800.88;5091738;28;20044;-76
2022/09/11 01:46:50;;;;;;;49.90;35.00;;;;;;;21.10;59.22;101801.97;5093208;28;20071;-76
2022/09/11 01:49:21;;;;;;;55.80;38.63;;;;;;;21.07;59.14;101798.97;5073362;28;20569;-76
2022/09/11 01:51:51;;;;;;;53.70;36.05;;;;;;;21.02;58.82;101798.94;5091711;28;20059;-75
2022/09/11 01:54:21;;;;;;;51.45;36.75;;;;;;;20.81;59.18;101798.06;5073278;28;20047;-76
2022/09/11 01:56:54;;;;;;;48.25;32.85;;;;;;;20.75;58.81;101805.44;5091470;28;20056;-77
2022/09/11 01:59:27;;;;;;;50.03;35.03;;;;;;;20.88;58.62;101801.34;5073379;28;20040;-76
2022/09/11 02:01:59;;;;;;;53.35;36.35;;;;;;;20.83;58.56;101810.34;5091983;28;20036;-76
2022/09/11 02:04:31;;;;;;;50.35;34.20;;;;;;;20.80;58.95;101804.59;5092591;28;20046;-78
2022/09/11 02:07:06;;;;;;;55.92;34.35;;;;;;;20.64;59.22;101811.94;5091280;28;20089;-77
2022/09/11 02:09:38;;;;;;;51.40;34.25;;;;;;;20.66;59.23;101811.66;5091148;28;20032;-77
2022/09/11 02:12:09;;;;;;;50.92;34.97;;;;;;;20.67;58.99;101808.69;5091846;28;20104;-75
2022/09/11 02:14:47;;;;;;;59.70;35.60;;;;;;;20.62;58.98;101810.53;5091422;28;20036;-77
2022/09/11 02:17:48;;;;;;;51.78;35.08;;;;;;;20.53;59.41;101814.91;5091313;28;20032;-76
2022/09/11 02:20:14;;;;;;;51.05;33.83;;;;;;;20.53;59.15;101818.44;5090419;28;20039;-77
2022/09/11 02:22:39;;;;;;;50.30;35.00;;;;;;;20.46;59.33;101820.59;5073615;28;20111;-77
2022/09/11 02:25:05;;;;;;;47.67;34.13;;;;;;;20.41;59.20;101817.84;5091956;28;20055;-77
2022/09/11 02:27:32;;;;;;;47.58;35.25;;;;;;;20.36;59.36;101809.66;5091764;28;20093;-77
2022/09/11 02:29:59;;;;;;;47.00;33.30;;;;;;;20.34;59.52;101821.91;5091721;28;20036;-77
2022/09/11 02:32:26;;;;;;;48.75;33.08;;;;;;;20.36;59.96;101822.47;5070161;28;20056;-77
2022/09/11 02:34:54;;;;;;;60.10;30.58;;;;;;;20.45;59.12;101818.13;5072434;28;20029;-76
2022/09/11 02:37:59;;;;;;;74.18;28.83;;;;;;;20.52;59.21;101829.66;5093832;28;20039;-77
2022/09/11 02:41:13;;;;;;;64.18;29.20;;;;;;;20.39;59.38;101827.38;5098257;28;20062;-77
2022/09/11 02:43:57;;;;;;;72.30;25.33;;;;;;;20.32;59.67;101833.13;5014549;28;20050;-76
2022/09/11 02:46:47;;;;;;;54.80;25.63;;;;;;;20.43;59.14;101837.53;5014913;28;20042;-76
2022/09/11 02:49:37;;;;;;;30.42;25.02;;;;;;;20.27;59.25;101835.81;5015108;28;20068;-76
2022/09/11 02:52:17;;;;;;;79.60;24.35;;;;;;;20.37;59.41;101837.75;5014611;28;20060;-77
2022/09/11 02:54:52;;;;;;;135.05;26.02;;;;;;;20.08;60.08;101837.31;5014719;28;20058;-77
2022/09/11 02:57:26;;;;;;;55.30;22.40;;;;;;;20.04;60.02;101842.47;5015763;28;20569;-75
2022/09/11 02:59:56;;;;;;;52.60;22.38;;;;;;;20.02;59.79;101849.28;5015224;28;20046;-76
2022/09/11 03:02:26;;;;;;;64.93;23.75;;;;;;;20.17;59.57;101850.19;5015480;28;20045;-75
2022/09/11 03:04:52;;;;;;;61.95;25.65;;;;;;;20.26;59.23;101858.75;5015200;28;20044;-75
2022/09/11 03:07:17;;;;;;;100.15;25.75;;;;;;;20.34;59.23;101849.22;5016008;28;20045;-75
2022/09/11 03:09:42;;;;;;;59.47;26.67;;;;;;;20.41;59.53;101858.81;5015281;28;20038;-76
2022/09/11 03:12:09;;;;;;;63.03;28.83;;;;;;;20.47;59.75;101860.47;4998741;28;20049;-76
2022/09/11 03:14:34;;;;;;;169.75;29.08;;;;;;;20.59;59.06;101855.63;5014616;28;20037;-75
2022/09/11 03:17:03;;;;;;;150.20;30.13;;;;;;;20.56;59.68;101852.63;5014541;28;20100;-76
2022/09/11 03:19:29;;;;;;;152.80;33.80;;;;;;;20.64;59.50;101852.91;5036826;28;20059;-77
2022/09/11 03:21:54;;;;;;;105.43;29.92;;;;;;;20.65;60.03;101857.28;5097571;28;20468;-77
2022/09/11 03:24:20;;;;;;;96.35;30.00;;;;;;;20.75;59.71;101856.50;5097142;28;20047;-76
2022/09/11 03:26:46;;;;;;;188.90;32.67;;;;;;;20.75;59.67;101853.78;5097419;28;20054;-76
2022/09/11 03:29:11;;;;;;;173.50;32.60;;;;;;;20.74;59.98;101854.84;5097510;28;20028;-76
2022/09/11 03:31:37;;;;;;;188.02;32.45;;;;;;;20.85;60.04;101862.81;5097510;28;20040;-77
2022/09/11 03:34:03;;;;;;;124.13;28.67;;;;;;;20.87;59.61;101859.81;5097282;28;20119;-76
2022/09/11 03:36:29;;;;;;;138.25;30.27;;;;;;;20.95;59.90;101868.31;5097165;28;20488;-77
2022/09/11 03:38:55;;;;;;;166.52;30.77;;;;;;;20.94;59.74;101865.84;5097373;28;20032;-78
2022/09/11 03:41:21;;;;;;;147.55;30.98;;;;;;;20.97;59.73;101857.13;5079625;28;20070;-76
2022/09/11 03:43:46;;;;;;;135.63;31.08;;;;;;;21.00;59.94;101860.13;5098551;28;20024;-75
2022/09/11 03:46:12;;;;;;;123.07;29.23;;;;;;;21.05;59.66;101864.00;5096029;28;20036;-77
2022/09/11 03:48:38;;;;;;;156.23;32.83;;;;;;;21.10;60.12;101862.09;5095884;28;20039;-75
2022/09/11 03:51:04;;;;;;;203.95;33.83;;;;;;;20.90;60.46;101859.28;5093673;28;20032;-77
2022/09/11 03:53:31;;;;;;;192.52;29.83;;;;;;;20.97;59.92;101859.84;5094454;28;20115;-75
2022/09/11 03:55:59;;;;;;;150.90;30.13;;;;;;;20.59;60.73;101860.25;5094207;28;20417;-75
2022/09/11 03:58:24;;;;;;;91.32;26.10;;;;;;;20.74;60.17;101852.13;5094769;28;20127;-77
2022/09/11 04:00:50;;;;;;;118.63;25.30;;;;;;;20.37;60.83;101857.69;5092831;28;20123;-78
2022/09/11 04:03:16;;;;;;;128.90;27.20;;;;;;;20.43;60.34;101861.28;5089364;28;20037;-77
2022/09/11 04:05:45;;;;;;;106.22;23.92;;;;;;;20.30;61.01;101875.41;5080758;28;20036;-77
2022/09/11 04:08:12;;;;;;;105.88;24.75;;;;;;;20.24;61.07;101871.00;5093747;28;20073;-77
2022/09/11 04:10:37;;;;;;;119.72;24.63;;;;;;;20.00;61.59;101873.28;5093880;28;20028;-77
2022/09/11 04:13:03;;;;;;;110.13;27.73;;;;;;;20.14;60.64;101872.56;5078906;28;20549;-77
2022/09/11 04:15:29;;;;;;;107.05;28.48;;;;;;;20.33;60.08;101864.78;5093341;28;20486;-76
2022/09/11 04:17:55;;;;;;;114.50;27.00;;;;;;;20.37;59.64;101873.25;5093559;28;20044;-76
2022/09/11 04:20:21;;;;;;;133.45;26.05;;;;;;;20.25;60.27;101873.47;5093611;28;20040;-77
2022/09/11 04:22:46;;;;;;;114.05;26.15;;;;;;;20.31;60.22;101868.84;5094348;28;20027;-77
2022/09/11 04:25:13;;;;;;;87.78;25.55;;;;;;;20.34;59.92;101871.06;5093003;28;20502;-77
2022/09/11 04:27:38;;;;;;;129.50;27.05;;;;;;;20.26;59.91;101869.66;5093925;28;20452;-77
2022/09/11 04:30:05;;;;;;;99.57;26.50;;;;;;;20.30;59.64;101875.41;5093241;28;20043;-77
2022/09/11 04:32:30;;;;;;;111.43;28.02;;;;;;;20.31;59.29;101871.56;5093271;28;20032;-77
2022/09/11 04:34:55;;;;;;;98.22;26.27;;;;;;;20.19;59.90;101868.22;5093475;28;20491;-75
2022/09/11 04:37:21;;;;;;;81.38;26.45;;;;;;;20.25;59.99;101869.91;5094492;28;20024;-76
2022/09/11 04:39:47;;;;;;;75.80;24.42;;;;;;;19.96;60.27;101874.88;5094299;28;20489;-79
2022/09/11 04:42:13;;;;;;;59.65;23.85;;;;;;;19.95;60.14;101884.16;5093927;28;20256;-77
2022/09/11 04:44:38;;;;;;;67.90;26.42;;;;;;;20.11;59.55;101883.16;5093310;28;20055;-77
2022/09/11 04:47:04;;;;;;;68.15;21.25;;;;;;;19.93;59.82;101887.13;5093590;28;20506;-76
2022/09/11 04:49:29;;;;;;;71.63;22.33;;;;;;;20.05;59.38;101890.50;5093677;28;20031;-77
2022/09/11 04:51:56;;;;;;;78.78;23.83;;;;;;;20.10;59.66;101895.19;5093551;28;20028;-77
2022/09/11 04:54:22;;;;;;;94.32;23.13;;;;;;;20.23;59.38;101896.63;5093558;28;20028;-78
2022/09/11 04:56:48;;;;;;;65.57;23.67;;;;;;;20.20;59.21;101903.47;5093224;28;20035;-77
2022/09/11 04:59:21;;;;;;;46.90;21.45;;;;;;;20.17;59.49;101904.78;5075074;28;21136;-75
2022/09/11 05:01:46;;;;;;;71.13;23.42;;;;;;;20.28;59.22;101908.44;5093129;28;20059;-77
2022/09/11 05:04:13;;;;;;;54.22;21.45;;;;;;;20.24;59.04;101906.50;5092839;28;20032;-75
2022/09/11 05:06:39;;;;;;;98.22;20.33;;;;;;;20.22;59.71;101914.94;5092350;28;20028;-75
2022/09/11 05:09:06;;;;;;;115.30;22.02;;;;;;;20.24;58.95;101903.75;5074388;28;20032;-75
2022/09/11 05:11:32;;;;;;;64.82;20.00;;;;;;;20.27;59.15;101917.69;5092816;28;20040;-75
2022/09/11 05:13:58;;;;;;;131.70;22.23;;;;;;;20.15;59.82;101917.88;5093233;28;20440;-76
2022/09/11 05:16:25;;;;;;;72.40;21.23;;;;;;;20.22;59.57;101917.69;5086688;28;20085;-73
2022/09/11 05:18:52;;;;;;;68.78;18.27;;;;;;;20.05;59.86;101925.97;5083198;28;20107;-74
2022/09/11 05:21:18;;;;;;;105.30;21.33;;;;;;;20.26;59.32;101934.34;5081645;28;20043;-75
2022/09/11 05:23:48;;;;;;;63.63;19.20;;;;;;;20.34;59.06;101933.84;5081174;28;20040;-75
2022/09/11 05:26:20;;;;;;;78.55;21.58;;;;;;;20.39;58.38;101931.16;5083057;28;20090;-75
2022/09/11 05:28:46;;;;;;;107.13;20.33;;;;;;;20.26;59.28;101932.44;5083870;28;20016;-75
2022/09/11 05:31:16;;;;;;;95.15;20.92;;;;;;;20.24;59.05;101920.97;5081718;28;20098;-75
2022/09/11 05:33:42;;;;;;;79.10;17.42;;;;;;;20.39;58.82;101929.25;5081219;28;20031;-75
2022/09/11 05:36:09;;;;;;;60.67;19.05;;;;;;;20.32;58.76;101928.66;5082668;28;20032;-75
2022/09/11 05:38:38;;;;;;;66.90;18.30;;;;;;;20.17;59.13;101939.44;5080375;28;20028;-76
2022/09/11 05:41:05;;;;;;;81.07;18.17;;;;;;;20.17;59.00;101934.81;5084917;28;20099;-77
2022/09/11 05:43:34;;;;;;;66.70;18.45;;;;;;;20.35;58.91;101938.22;5082936;28;20400;-76
2022/09/11 05:46:00;;;;;;;71.97;17.25;;;;;;;20.23;59.02;101946.59;5080930;28;20496;-75
2022/09/11 05:48:33;;;;;;;45.03;16.05;;;;;;;20.17;58.83;101941.34;5082965;28;20039;-75
2022/09/11 05:51:01;;;;;;;38.47;17.08;;;;;;;19.98;59.95;101940.94;5081745;28;20032;-76
2022/09/11 05:53:28;;;;;;;32.78;17.10;;;;;;;20.25;58.69;101949.06;5092401;28;20028;-75
2022/09/11 05:55:54;;;;;;;67.03;19.88;;;;;;;20.14;59.37;101950.88;5092358;28;20397;-76
2022/09/11 05:58:21;;;;;;;65.28;16.80;;;;;;;20.01;59.23;101957.59;5092415;28;20093;-76
2022/09/11 06:00:47;;;;;;;65.38;16.42;;;;;;;20.39;58.19;101959.28;5085509;28;20040;-74
2022/09/11 06:03:14;;;;;;;53.63;17.17;;;;;;;20.40;58.62;101962.84;5081958;28;20051;-75
2022/09/11 06:05:39;;;;;;;61.67;17.10;;;;;;;20.30;58.70;101969.06;5082400;28;20068;-76
2022/09/11 06:08:06;;;;;;;44.85;16.98;;;;;;;20.37;58.95;101963.34;5082883;28;20055;-75
2022/09/11 06:10:32;;;;;;;79.32;19.02;;;;;;;20.15;59.61;101967.00;5081778;28;20475;-76
2022/09/11 06:12:57;;;;;;;46.83;17.80;;;;;;;20.30;59.18;101971.78;5078110;28;20089;-75
2022/09/11 06:15:24;;;;;;;40.95;16.38;;;;;;;20.23;59.25;101976.63;5076963;28;20036;-74
2022/09/11 06:17:49;;;;;;;84.68;18.50;;;;;;;20.22;59.45;101982.34;5081641;28;20043;-76
2022/09/11 06:20:15;;;;;;;30.13;15.98;;;;;;;20.45;59.38;101977.34;5078707;28;20037;-76
2022/09/11 06:22:41;;;;;;;36.22;15.68;;;;;;;20.31;59.45;101978.06;5082488;28;20036;-74
2022/09/11 06:25:07;;;;;;;38.95;14.90;;;;;;;20.48;59.50;101982.25;5078373;28;20036;-75
2022/09/11 06:27:33;;;;;;;56.13;16.65;;;;;;;20.46;59.48;101983.63;5061843;28;20054;-75
2022/09/11 06:29:58;;;;;;;41.63;19.15;;;;;;;20.66;59.24;101981.00;5080846;28;20420;-76
2022/09/11 06:32:24;;;;;;;40.80;16.63;;;;;;;20.46;59.83;101987.16;5078651;28;20025;-74
2022/09/11 06:34:49;;;;;;;69.10;17.00;;;;;;;20.52;59.40;101990.78;5081749;28;20043;-74
2022/09/11 06:37:15;;;;;;;73.70;16.05;;;;;;;20.67;59.24;101988.13;5080592;28;20038;-73
2022/09/11 06:39:40;;;;;;;76.20;17.48;;;;;;;20.68;59.31;101982.41;5078956;28;20337;-75
2022/09/11 06:42:07;;;;;;;58.95;17.02;;;;;;;20.70;59.75;101979.41;5079032;28;20169;-75
2022/09/11 06:44:32;;;;;;;43.97;17.20;;;;;;;20.62;60.45;101982.63;5061871;28;20504;-74
2022/09/11 06:46:58;;;;;;;62.17;16.75;;;;;;;20.90;58.97;101982.25;5078481;28;20028;-75
2022/09/11 06:49:23;;;;;;;76.38;20.48;;;;;;;20.85;59.80;101979.50;5082542;28;20097;-73
2022/09/11 06:51:51;;;;;;;32.38;18.55;;;;;;;20.85;60.47;101982.22;5078176;28;20047;-75
2022/09/11 06:54:16;;;;;;;48.45;18.88;;;;;;;20.94;60.12;101986.09;5077216;28;20041;-75
2022/09/11 06:56:41;;;;;;;68.28;20.83;;;;;;;21.20;59.51;101976.94;5079468;28;20047;-76
2022/09/11 06:59:07;;;;;;;62.42;22.33;;;;;;;21.31;58.96;101984.09;5072443;28;20428;-76
2022/09/11 07:01:32;;;;;;;87.55;20.88;;;;;;;21.36;59.31;101981.38;5052734;28;20047;-76
2022/09/11 07:03:58;;;;;;;52.88;20.63;;;;;;;21.45;59.00;101973.47;5070447;28;20029;-76
2022/09/11 07:06:29;;;;;;;53.10;19.65;;;;;;;21.70;58.52;101978.97;5084659;28;20036;-75
2022/09/11 07:09:00;;;;;;;56.90;19.10;;;;;;;21.88;58.03;101985.91;5091024;28;20399;-76
2022/09/11 07:11:26;;;;;;;55.05;20.70;;;;;;;21.93;59.01;101981.25;5090971;28;20467;-76
2022/09/11 07:13:52;;;;;;;43.15;20.88;;;;;;;22.11;58.26;101986.16;5090999;28;20048;-77
2022/09/11 07:16:18;;;;;;;28.38;20.15;;;;;;;22.17;58.62;101984.25;5091387;28;20032;-76
2022/09/11 07:18:45;;;;;;;30.45;19.00;;;;;;;22.10;58.60;101980.97;5088855;28;20036;-76
2022/09/11 07:21:17;;;;;;;43.00;21.45;;;;;;;22.34;58.25;101984.78;5084047;28;20048;-75
2022/09/11 07:23:47;;;;;;;39.75;19.85;;;;;;;22.37;57.76;101982.31;5082195;28;20128;-75
2022/09/11 07:26:12;;;;;;;35.08;19.05;;;;;;;22.44;57.76;101982.03;5085125;28;20044;-75
2022/09/11 07:28:39;;;;;;;21.98;19.55;;;;;;;22.59;57.98;101982.88;5065838;28;20041;-75
2022/09/11 07:31:04;;;;;;;34.67;18.05;;;;;;;22.28;58.84;101978.50;5075403;28;20032;-75
2022/09/11 07:33:29;;;;;;;39.08;17.52;;;;;;;22.49;58.59;101988.31;5074374;28;20127;-75
2022/09/11 07:35:55;;;;;;;29.55;19.38;;;;;;;22.53;57.91;101988.59;5074592;28;20033;-76
2022/09/11 07:38:20;;;;;;;21.92;18.05;;;;;;;22.63;58.33;101996.81;5074059;28;20040;-76
2022/09/11 07:40:45;;;;;;;23.45;19.55;;;;;;;22.72;58.43;101995.19;5075069;28;20468;-76
2022/09/11 07:43:12;;;;;;;43.17;17.98;;;;;;;22.71;58.26;101996.25;5074852;28;20453;-74
2022/09/11 07:45:38;;;;;;;25.80;19.65;;;;;;;22.79;58.07;102000.34;5074473;28;20043;-75
2022/09/11 07:48:05;;;;;;;21.85;18.75;;;;;;;22.81;58.19;102003.63;5074047;28;20126;-75
2022/09/11 07:50:31;;;;;;;24.95;18.33;;;;;;;22.95;57.91;102007.44;5090465;28;20073;-76
2022/09/11 07:52:56;;;;;;;23.30;19.38;;;;;;;22.49;58.95;102004.75;5084302;28;20468;-75
2022/09/11 07:55:21;;;;;;;21.27;19.05;;;;;;;22.77;59.27;102010.75;5064099;28;20475;-76
2022/09/11 07:57:49;;;;;;;21.10;18.85;;;;;;;22.82;58.72;102010.78;5087375;28;20126;-76
2022/09/11 08:00:15;;;;;;;22.23;19.92;;;;;;;22.80;58.51;102008.28;5088932;28;20554;-76
2022/09/11 08:02:41;;;;;;;22.55;19.92;;;;;;;22.82;58.68;102006.09;5085733;28;20159;-75
2022/09/11 08:05:07;;;;;;;22.02;18.80;;;;;;;22.92;58.71;102010.75;5072057;28;20059;-75
2022/09/11 08:07:32;;;;;;;26.52;18.27;;;;;;;23.00;58.52;102008.22;5074852;28;20388;-73
2022/09/11 08:09:58;;;;;;;21.08;18.70;;;;;;;22.53;60.11;102005.03;5074103;28;20052;-74
2022/09/11 08:12:23;;;;;;;24.50;19.30;;;;;;;22.78;59.41;102007.75;5073669;28;20028;-75
2022/09/11 08:14:49;;;;;;;23.20;19.50;;;;;;;23.25;57.98;102001.84;5073897;28;20032;-75
2022/09/11 08:17:14;;;;;;;22.58;19.92;;;;;;;23.38;57.60;102007.56;5073168;28;20032;-75
2022/09/11 08:19:40;;;;;;;22.13;19.83;;;;;;;23.51;57.40;102009.69;5074364;28;20024;-75
2022/09/11 08:22:06;;;;;;;26.90;19.83;;;;;;;23.53;57.75;102009.38;5073712;28;20033;-74
2022/09/11 08:24:31;;;;;;;22.60;19.40;;;;;;;23.36;57.47;102015.25;5055207;28;20504;-74
2022/09/11 08:26:56;;;;;;;23.20;19.00;;;;;;;23.61;57.40;102014.28;5073337;28;20148;-75
2022/09/11 08:29:23;;;;;;;22.27;18.05;;;;;;;23.82;57.06;102015.78;5087461;28;20044;-76
2022/09/11 08:31:49;;;;;;;25.80;16.90;;;;;;;23.96;56.83;102019.53;5085774;28;20036;-74
2022/09/11 08:34:15;;;;;;;23.13;17.40;;;;;;;24.06;56.56;102015.94;5056248;28;20039;-77
2022/09/11 08:36:40;;;;;;;23.63;14.85;;;;;;;24.15;55.78;102020.53;5082371;28;20435;-75
2022/09/11 08:39:07;;;;;;;20.13;15.10;;;;;;;24.24;55.87;102028.97;5086489;28;20053;-73
2022/09/11 08:41:50;;;;;;;18.10;14.70;;;;;;;24.20;55.63;102023.22;5093472;28;20036;-75
2022/09/11 08:44:23;;;;;;;16.65;14.30;;;;;;;24.56;54.60;102017.41;5086308;28;20085;-75
2022/09/11 08:47:14;;;;;;;15.25;13.52;;;;;;;24.68;54.20;102018.69;5080414;28;20658;-74
2022/09/11 08:49:42;;;;;;;14.52;13.05;;;;;;;24.59;54.77;102028.66;5072898;28;20042;-74
2022/09/11 08:52:11;;;;;;;16.02;12.38;;;;;;;24.71;54.39;102029.06;5085443;28;20028;-75
2022/09/11 08:54:39;;;;;;;18.73;12.50;;;;;;;24.74;53.82;102028.53;5088458;28;20119;-74
2022/09/11 08:57:36;;;;;;;14.60;11.80;;;;;;;24.98;53.35;102031.31;5092941;28;20040;-75
2022/09/11 09:00:21;;;;;;;12.90;10.13;;;;;;;25.15;53.04;102026.16;5075151;28;20036;-76
2022/09/11 09:02:47;;;;;;;16.70;9.20;;;;;;;25.29;51.99;102032.59;5092428;28;20519;-75
2022/09/11 09:05:38;;;;;;;10.55;9.18;;;;;;;25.79;50.63;102031.06;5088875;28;20123;-75
2022/09/11 09:08:26;;;;;;;16.85;8.40;;;;;;;26.22;50.14;102034.59;5072938;28;20032;-75
2022/09/11 09:10:53;;;;;;;14.23;8.85;;;;;;;26.35;49.08;102033.81;5073201;28;20029;-75
2022/09/11 09:13:34;;;;;;;12.50;9.25;;;;;;;26.46;48.58;102036.09;5073072;28;20045;-75
2022/09/11 09:16:14;;;;;;;11.57;9.75;;;;;;;26.54;49.12;102042.84;5072440;28;20090;-76
2022/09/11 09:18:47;;;;;;;10.50;7.25;;;;;;;26.42;47.79;102045.25;5072425;28;20024;-76
2022/09/11 09:21:23;;;;;;;8.50;6.05;;;;;;;25.87;48.73;102044.19;5072575;28;20519;-76
2022/09/11 09:23:52;;;;;;;8.23;5.93;;;;;;;26.09;48.47;102042.50;5075128;28;20116;-76
2022/09/11 09:26:18;;;;;;;10.23;6.18;;;;;;;26.51;47.32;102046.22;5092854;28;20074;-75
2022/09/11 09:28:50;;;;;;;8.40;5.63;;;;;;;26.40;47.49;102033.72;5093019;28;20026;-75
2022/09/11 09:31:21;;;;;;;7.80;4.80;;;;;;;26.23;47.24;102038.97;5072389;28;20652;-75
2022/09/11 09:34:04;;;;;;;7.22;5.07;;;;;;;26.36;46.98;102043.72;5054162;28;20036;-76
2022/09/11 09:36:38;;;;;;;8.80;5.15;;;;;;;26.41;46.20;102036.19;5072403;28;20063;-74
2022/09/11 09:39:14;;;;;;;8.55;4.13;;;;;;;26.50;45.57;102042.63;5077676;28;20058;-75
2022/09/11 09:41:48;;;;;;;8.40;3.92;;;;;;;26.98;44.97;102039.56;5093258;28;20040;-76
2022/09/11 09:44:47;;;;;;;9.93;3.75;;;;;;;27.14;44.58;102041.72;5092856;28;20047;-75
2022/09/11 09:47:13;;;;;;;7.18;3.55;;;;;;;27.21;42.87;102044.88;5091687;28;20040;-77
2022/09/11 09:49:40;;;;;;;5.47;3.08;;;;;;;27.34;42.85;102046.84;5093554;28;20356;-75
2022/09/11 09:52:20;;;;;;;6.32;3.20;;;;;;;27.51;43.16;102054.50;5092336;28;20039;-75
2022/09/11 09:54:59;;;;;;;7.47;4.32;;;;;;;26.95;44.44;102044.56;5092486;28;20081;-74
2022/09/11 09:57:31;;;;;;;7.97;4.67;;;;;;;26.80;44.85;102055.91;5092368;28;20120;-75
2022/09/11 10:00:09;;;;;;;9.30;3.58;;;;;;;26.99;44.49;102046.75;5092744;28;21018;-75
2022/09/11 10:02:53;;;;;;;11.35;3.67;;;;;;;26.54;44.52;102051.09;5091905;28;20038;-76
2022/09/11 10:05:31;;;;;;;4.88;3.22;;;;;;;27.20;42.51;102048.78;5087069;28;20102;-74
2022/09/11 10:08:04;;;;;;;6.10;3.13;;;;;;;27.34;42.77;102049.59;5077736;28;20400;-75
2022/09/11 10:10:35;;;;;;;7.70;2.90;;;;;;;27.23;43.74;102047.34;5080825;28;20082;-75
2022/09/11 10:13:07;;;;;;;8.82;4.43;;;;;;;26.65;45.24;102052.59;5080036;28;20039;-74
2022/09/11 10:15:38;;;;;;;6.93;4.40;;;;;;;26.62;46.28;102048.47;5080998;28;20028;-75
2022/09/11 10:18:31;;;;;;;8.38;5.03;;;;;;;26.60;46.61;102047.13;5081722;28;20048;-74
2022/09/11 10:21:12;;;;;;;6.65;4.93;;;;;;;26.54;46.92;102048.34;5081537;28;20037;-75
2022/09/11 10:23:43;;;;;;;10.88;5.10;;;;;;;26.36;47.58;102046.50;5080957;28;20373;-74
2022/09/11 10:26:15;;;;;;;7.78;5.13;;;;;;;26.32;47.27;102051.75;5079466;28;20452;-75
2022/09/11 10:28:40;;;;;;;8.82;5.07;;;;;;;26.65;46.61;102049.81;5080263;28;20064;-75
2022/09/11 10:31:06;;;;;;;7.45;4.63;;;;;;;27.11;46.18;102045.09;5075107;28;20170;-75
2022/09/11 10:33:35;;;;;;;8.43;4.53;;;;;;;27.28;45.41;102042.50;5092492;28;20404;-76
2022/09/11 10:36:05;;;;;;;6.55;3.90;;;;;;;27.34;43.87;102041.31;5092386;28;20037;-74
2022/09/11 10:38:33;;;;;;;12.32;4.05;;;;;;;27.64;42.83;102028.78;5083847;28;20037;-75
2022/09/11 10:41:07;;;;;;;5.38;3.30;;;;;;;27.77;42.43;102033.47;5079135;28;20028;-72
2022/09/11 10:43:49;;;;;;;3.72;2.83;;;;;;;27.39;42.81;102034.88;5079360;28;20040;-76
2022/09/11 10:46:17;;;;;;;7.35;3.67;;;;;;;27.34;43.33;102029.47;5081632;28;20065;-74
2022/09/11 10:48:42;;;;;;;7.22;3.25;;;;;;;28.14;41.78;102026.81;5076365;28;20139;-75
2022/09/11 10:51:11;;;;;;;6.20;3.05;;;;;;;28.46;41.61;102029.31;5070948;28;20041;-74
2022/09/11 10:54:00;;;;;;;4.50;2.20;;;;;;;28.81;39.88;102031.16;5071280;28;20052;-74
2022/09/11 10:56:26;;;;;;;6.63;2.78;;;;;;;28.95;38.59;102023.56;5071411;28;20508;-75
2022/09/11 10:59:04;;;;;;;6.00;1.77;;;;;;;28.87;38.63;102024.34;5072761;28;20024;-74
2022/09/11 11:01:30;;;;;;;5.50;2.70;;;;;;;28.45;40.70;102027.66;5075479;28;20120;-74
2022/09/11 11:03:55;;;;;;;4.18;2.00;;;;;;;28.27;39.35;102021.22;5074316;28;20575;-73
2022/09/11 11:06:50;;;;;;;6.72;3.05;;;;;;;28.83;38.92;102017.00;5082346;28;20035;-74
2022/09/11 11:09:44;;;;;;;7.25;2.70;;;;;;;29.17;38.58;102019.94;5083863;28;20061;-72
2022/09/11 11:12:23;;;;;;;5.38;2.33;;;;;;;29.58;37.42;102013.97;5081720;28;20032;-71
2022/09/11 11:15:13;;;;;;;3.70;2.28;;;;;;;29.89;37.12;102021.03;5084769;28;20531;-72
2022/09/11 11:18:12;;;;;;;3.40;1.85;;;;;;;30.13;36.18;102024.09;5079198;28;20170;-73
2022/09/11 11:20:56;;;;;;;4.78;2.10;;;;;;;30.23;35.20;102014.66;5085795;28;20070;-73
2022/09/11 11:23:27;;;;;;;7.72;2.00;;;;;;;30.05;36.27;102024.13;5084732;28;20041;-72
2022/09/11 11:26:15;;;;;;;4.75;2.88;;;;;;;28.95;38.88;102025.50;5083291;28;20048;-77
2022/09/11 11:28:59;;;;;;;6.47;2.63;;;;;;;29.70;37.57;102028.00;5086073;28;20032;-73